Latest Weather Observations for Lord Howe Island

IDN60801

Issued at 4:32 pm EST Monday 6 July 2015 (issued every 30 minutes, with the page automatically refreshed every 10 minutes)

About weather observations | Map of weather stations | Latest weather observations for NSW | Other Formats
Station Details ID: 200839 Name: LORD HOWE ISLAND AERO Lat: -31.54 Lon: 159.08 Height: 5.0 m
Data from the previous 72 hours. | See also: Recent months at Lord Howe Island
Date/Time
EST
Temp
°C
App
Temp
°C
Dew
Point
Rel
Hum
%
Delta-T
°C
Wind Press
QNH
hPa
Press
MSL
hPa
Rain
since 9 am
mm
Dir
 
Spd
km/h
Gust
km/h
Spd
kts
Gust
kts
06/04:30pm 18.2 17.5 15.5 84 1.6 WSW 13 20 7 11 1013.6 - 5.8
06/04:06pm 17.3 16.0 15.8 91 0.9 W 17 22 9 12 1013.7 - 5.8
06/04:00pm 17.3 15.8 15.4 88 1.1 W 17 22 9 12 1013.7 - 5.8
06/03:38pm 18.6 18.2 14.1 75 2.6 NNW 9 20 5 11 1013.9 - 1.4
06/03:30pm 19.4 18.8 12.2 63 4.0 NNW 7 17 4 9 1013.7 - 0.0
06/03:00pm 19.7 18.0 11.1 57 4.7 NW 11 20 6 11 1013.9 - 0.0
06/02:30pm 19.9 18.4 10.5 54 5.1 WNW 9 17 5 9 1014.1 1014.1 0.0
06/02:00pm 20.5 18.5 10.3 52 5.5 WNW 11 19 6 10 1014.2 - 0.0
06/01:30pm 20.1 16.7 11.2 56 4.9 W 20 24 11 13 1014.5 - 0.0
06/01:00pm 20.2 16.0 11.1 56 5.0 W 24 30 13 16 1014.6 - 0.0
06/12:30pm 20.5 16.7 11.2 55 5.1 W 22 28 12 15 1015.2 - 0.0
06/12:00pm 20.2 15.5 10.6 54 5.2 W 26 30 14 16 1015.7 - 0.0
06/11:30am 20.3 17.2 12.3 60 4.5 W 20 28 11 15 1016.2 1016.2 0.0
06/11:00am 19.8 16.1 12.7 63 4.0 W 24 28 13 15 1016.9 - 0.0
06/10:30am 20.1 17.1 12.0 59 4.5 W 19 24 10 13 1017.2 - 0.0
06/10:00am 19.4 16.6 12.6 64 3.8 WSW 19 24 10 13 1017.3 - 0.0
06/09:30am 19.2 15.5 12.6 65 3.7 W 24 32 13 17 1017.9 - 0.0
06/09:00am 19.5 15.5 11.9 61 4.2 W 24 30 13 16 1018.0 - 0.0
06/08:30am 19.0 15.4 11.9 63 3.9 W 22 30 12 16 1017.9 1017.9 0.0
06/08:00am 19.0 15.9 12.1 64 3.8 W 20 26 11 14 1018.1 - 0.0
06/07:30am 18.6 15.3 11.7 64 3.8 W 20 26 11 14 1018.0 - 0.0
06/07:00am 18.0 14.2 11.2 64 3.7 W 22 26 12 14 1018.1 - 0.0
06/06:30am 17.9 14.5 11.3 65 3.6 W 20 24 11 13 1017.9 - 0.0
06/06:00am 18.0 14.8 11.4 65 3.6 W 19 22 10 12 1017.9 - 0.0
06/05:30am 18.0 14.8 11.2 64 3.7 W 19 24 10 13 1017.7 1017.7 0.0
06/05:00am 17.9 14.4 11.0 64 3.7 W 20 24 11 13 1017.7 - 0.0
06/04:30am 17.8 14.5 10.9 64 3.7 W 19 24 10 13 1017.6 - 0.0
06/04:00am 17.8 15.0 11.3 65 3.5 WSW 17 22 9 12 1017.6 - 0.0
06/03:30am 17.8 14.4 11.1 65 3.6 WSW 20 26 11 14 1017.9 - 0.0
06/03:00am 17.8 15.1 11.6 67 3.4 WSW 17 20 9 11 1018.1 - 0.0
06/02:30am 17.8 15.0 11.3 65 3.5 W 17 22 9 12 1018.4 1018.4 0.0
06/02:00am 17.8 15.1 11.6 67 3.4 WSW 17 20 9 11 1018.6 - 0.0
06/01:30am 17.8 15.2 12.0 69 3.2 WSW 17 20 9 11 1018.7 - 0.0
06/01:00am 17.8 15.1 11.6 67 3.4 WSW 17 22 9 12 1019.0 - 0.0
06/12:30am 17.8 15.1 11.8 68 3.3 WSW 17 22 9 12 1019.2 - 0.0
06/12:00am 18.0 14.8 11.2 64 3.7 WSW 19 24 10 13 1019.4 - 0.0
 
Date/Time
EST
Temp
°C
App
Temp
°C
Dew
Point
Rel
Hum
%
Delta-T
°C
Wind Press
QNH
hPa
Press
MSL
hPa
Rain
since 9 am
mm
Dir
 
Spd
km/h
Gust
km/h
Spd
kts
Gust
kts
05/11:30pm 18.0 14.8 11.4 65 3.6 WSW 19 24 10 13 1019.7 1019.7 0.0
05/11:00pm 17.9 14.8 11.5 66 3.5 WSW 19 22 10 12 1019.7 - 0.0
05/10:30pm 18.0 14.9 11.6 66 3.5 WSW 19 24 10 13 1019.9 - 0.0
05/10:00pm 18.0 15.2 11.2 64 3.7 WSW 17 22 9 12 1019.9 - 0.0
05/09:30pm 18.0 15.0 11.8 67 3.4 WSW 19 24 10 13 1019.8 - 0.0
05/09:00pm 18.0 14.5 12.2 69 3.2 WSW 22 26 12 14 1019.9 - 0.0
05/08:30pm 18.2 15.2 12.0 67 3.4 WSW 19 24 10 13 1019.9 1019.9 0.0
05/08:00pm 18.1 15.6 12.3 69 3.2 WSW 17 26 9 14 1019.8 - 0.0
05/07:30pm 18.1 15.0 12.1 68 3.3 WSW 20 26 11 14 1019.9 - 0.0
05/07:00pm 18.1 15.5 11.9 67 3.4 WSW 17 22 9 12 1019.7 - 0.0
05/06:30pm 17.9 15.2 11.7 67 3.4 SW 17 22 9 12 1019.5 - 0.0
05/06:00pm 17.8 15.8 11.6 67 3.4 SW 13 22 7 12 1019.2 - 0.0
05/05:30pm 18.0 15.8 12.0 68 3.3 SW 15 22 8 12 1019.1 1019.1 0.0
05/05:00pm 18.1 15.1 11.9 67 3.4 WSW 19 28 10 15 1018.9 - 0.0
05/04:30pm 18.1 15.3 12.7 70 3.0 SW 19 24 10 13 1018.9 - 0.0
05/04:00pm 18.4 15.4 12.7 69 3.2 SW 20 30 11 16 1018.9 - 0.0
05/03:30pm 18.6 14.8 12.5 67 3.4 W 24 30 13 16 1018.6 - 0.0
05/03:00pm 18.6 14.5 11.5 63 3.9 W 24 30 13 16 1018.6 - 0.0
05/02:30pm 18.9 14.3 12.2 65 3.7 W 28 33 15 18 1018.8 1018.8 0.0
05/02:00pm 18.8 14.4 11.7 63 3.9 W 26 33 14 18 1019.0 - 0.0
05/01:30pm 19.4 14.8 12.4 64 3.9 W 28 37 15 20 1019.1 - 0.0
05/01:00pm 19.0 13.8 11.7 62 4.0 W 30 37 16 20 1019.3 - 0.0
05/12:30pm 19.0 13.5 11.9 63 3.9 W 32 37 17 20 1019.4 - 0.0
05/12:00pm 19.5 15.2 12.1 62 4.1 W 26 35 14 19 1019.9 - 0.0
05/11:30am 19.2 15.2 11.7 62 4.1 W 24 35 13 19 1020.1 1020.1 0.0
05/11:00am 19.0 14.7 10.6 58 4.5 W 24 39 13 21 1020.6 - 0.0
05/10:30am 18.8 14.5 13.1 69 3.2 W 28 39 15 21 1021.0 - 0.0
05/10:00am 19.2 13.7 10.4 56 4.7 W 30 39 16 21 1021.3 - 0.0
05/09:30am 19.1 14.1 10.8 58 4.5 W 28 37 15 20 1021.5 - 0.0
05/09:00am 18.5 16.4 11.1 62 4.0 WNW 13 20 7 11 1021.3 - 0.0
05/08:30am 17.9 15.9 11.5 66 3.5 WNW 13 22 7 12 1021.3 1021.3 0.0
05/08:00am 16.1 14.4 12.4 79 2.0 W 13 19 7 10 1021.5 - 0.0
05/07:30am 16.5 15.0 10.4 67 3.2 W 9 17 5 9 1021.2 - 0.0
05/07:00am 17.0 13.2 9.0 59 4.1 W 19 28 10 15 1021.2 - 0.0
05/06:30am 16.0 14.9 10.1 68 3.1 NW 6 9 3 5 1021.0 - 0.0
05/06:00am 14.5 14.0 9.4 71 2.6 N 2 6 1 3 1020.8 - 0.0
05/05:30am 15.8 13.7 9.6 66 3.2 WNW 11 19 6 10 1020.6 1020.6 0.0
05/05:00am 16.2 13.6 9.4 64 3.5 WNW 13 20 7 11 1020.5 - 0.0
05/04:30am 15.6 13.8 9.6 67 3.1 WNW 9 17 5 9 1020.3 - 0.0
05/04:00am 13.9 12.7 9.6 75 2.2 NW 6 9 3 5 1020.2 - 0.0
05/03:30am 15.7 13.9 9.5 66 3.2 W 9 13 5 7 1020.2 - 0.0
05/03:00am 14.4 12.6 9.5 72 2.5 SSW 9 13 5 7 1020.3 - 0.0
05/02:30am 13.0 13.0 9.9 81 1.6 CALM 0 6 0 3 1020.4 1020.4 0.0
05/02:00am 14.2 12.4 9.5 73 2.4 SSW 9 11 5 6 1020.6 - 0.0
05/01:30am 11.4 10.4 8.8 84 1.3 SW 4 11 2 6 1020.6 - 0.0
05/01:00am 11.3 11.0 8.7 84 1.3 CALM 0 0 0 0 1020.5 - 0.0
05/12:30am 12.9 12.8 9.3 79 1.8 CALM 0 6 0 3 1020.5 - 0.0
05/12:00am 13.9 12.7 9.6 75 2.2 SE 6 9 3 5 1020.8 - 0.0
 
Date/Time
EST
Temp
°C
App
Temp
°C
Dew
Point
Rel
Hum
%
Delta-T
°C
Wind Press
QNH
hPa
Press
MSL
hPa
Rain
since 9 am
mm
Dir
 
Spd
km/h
Gust
km/h
Spd
kts
Gust
kts
04/11:30pm 16.1 13.6 9.8 66 3.3 SW 13 20 7 11 1021.0 1021.0 0.0
04/11:00pm 15.7 13.0 9.1 65 3.4 SW 13 20 7 11 1021.2 - 0.0
04/10:30pm 14.8 13.4 10.8 77 2.1 SSW 9 13 5 7 1021.3 - 0.0
04/10:00pm 15.1 13.4 11.1 77 2.1 SSW 11 17 6 9 1021.4 - 0.0
04/09:30pm 14.2 14.0 10.4 78 2.0 S 2 7 1 4 1021.3 - 0.0
04/09:00pm 15.9 14.1 9.5 66 3.3 SSW 9 17 5 9 1021.4 - 0.0
04/08:30pm 14.3 13.1 10.3 77 2.1 S 7 9 4 5 1021.5 1021.5 0.0
04/08:00pm 15.8 12.4 11.3 74 2.4 W 20 26 11 14 1021.5 - 0.0
04/07:30pm 15.5 14.4 10.1 70 2.8 SSE 6 13 3 7 1021.4 - 0.0
04/07:00pm 15.2 14.3 10.8 75 2.3 SW 6 9 3 5 1021.3 - 0.0
04/06:30pm 15.4 14.2 9.6 68 3.0 SSE 6 9 3 5 1021.0 - 0.0
04/06:00pm 15.9 12.2 10.0 68 3.1 WSW 20 24 11 13 1020.9 - 0.0
04/05:30pm 15.8 13.5 8.9 63 3.5 SSW 11 19 6 10 1020.7 1020.7 0.0
04/05:00pm 15.5 14.0 8.6 63 3.5 S 6 11 3 6 1020.3 - 0.0
04/04:30pm 16.3 12.6 7.9 57 4.2 SSW 17 24 9 13 1020.1 - 0.0
04/04:00pm 16.5 12.8 8.0 57 4.3 SSW 17 22 9 12 1020.1 - 0.0
04/03:30pm 17.0 13.2 7.4 53 4.8 SW 17 24 9 13 1019.9 - 0.0
04/03:00pm 17.4 14.1 8.2 54 4.7 SW 15 20 8 11 1019.7 - 0.0
04/02:30pm 17.6 14.1 7.4 51 5.1 SW 15 22 8 12 1019.7 1019.7 0.0
04/02:00pm 17.7 14.9 8.5 55 4.7 SW 13 19 7 10 1019.6 - 0.0
04/01:30pm 17.7 14.3 7.8 52 5.0 SW 15 22 8 12 1019.6 - 0.0
04/01:00pm 17.4 13.6 7.7 53 4.9 SW 17 26 9 14 1019.8 - 0.0
04/12:30pm 17.7 14.1 8.5 55 4.7 SW 17 22 9 12 1020.0 - 0.0
04/12:00pm 17.4 14.0 9.3 59 4.2 SSW 17 26 9 14 1020.4 - 0.0
04/11:30am 17.1 13.4 9.6 61 3.9 SW 19 30 10 16 1020.8 1020.8 0.0
04/11:00am 17.7 14.2 7.1 50 5.3 SW 15 22 8 12 1021.1 - 0.0
04/10:30am 17.6 13.4 7.4 51 5.1 SW 19 22 10 12 1021.4 - 0.0
04/10:00am 16.5 14.2 8.9 61 3.9 SE 11 19 6 10 1021.5 - 0.0
04/09:30am 16.5 12.9 10.4 67 3.2 SW 20 26 11 14 1021.5 - 0.0
04/09:00am 16.5 12.6 7.2 54 4.6 SSW 17 26 9 14 1021.3 - 0.0
04/08:30am 17.1 13.6 7.3 52 4.9 SSW 15 20 8 11 1021.2 1021.2 3.0
04/08:00am 16.0 12.7 6.6 53 4.6 SSW 13 20 7 11 1021.2 - 3.0
04/07:30am 15.8 12.8 6.0 52 4.7 SSW 11 22 6 12 1021.1 - 3.0
04/07:00am 15.5 11.0 6.9 56 4.2 SSW 20 26 11 14 1020.8 - 3.0
04/06:30am 14.9 12.5 7.1 59 3.8 SSE 9 15 5 8 1020.6 - 3.0
04/06:00am 14.6 12.3 7.5 62 3.5 S 9 20 5 11 1020.4 - 3.0
04/05:30am 15.2 11.8 7.8 61 3.7 SSW 15 24 8 13 1020.1 1020.1 3.0
04/05:00am 14.9 11.2 6.4 57 4.1 SSW 15 24 8 13 1020.0 - 3.0
04/04:30am 15.3 11.0 7.2 58 4.0 SSW 19 30 10 16 1019.8 - 3.0
04/04:00am 14.0 11.4 9.3 73 2.4 SSE 13 32 7 17 1019.7 - 3.0
04/03:30am 15.0 11.7 6.5 57 4.1 S 13 20 7 11 1019.7 - 3.0
04/03:00am 15.3 12.5 6.9 57 4.1 SSE 11 20 6 11 1019.8 - 3.0
04/02:30am 15.4 10.9 6.8 56 4.2 SSW 20 30 11 16 1019.7 1019.7 3.0
04/02:00am 15.1 10.4 6.1 55 4.3 S 20 33 11 18 1019.6 - 3.0
04/01:30am 14.8 10.0 5.5 53 4.4 SSW 20 44 11 24 1019.8 - 3.0
04/01:00am 14.4 9.5 11.4 82 1.6 SW 28 43 15 23 1020.0 - 3.0
04/12:59am 14.5 9.7 11.5 82 1.6 SW 28 43 15 23 1020.0 - 3.0
04/12:46am 14.7 12.0 9.0 68 2.9 SW 13 22 7 12 1019.8 - 3.0
04/12:33am 14.0 9.1 8.4 69 2.8 SSW 24 37 13 20 1020.0 - 3.0
04/12:30am 14.1 9.5 9.6 74 2.3 SSW 24 37 13 20 1020.0 - 3.0
04/12:00am 15.8 10.5 6.6 54 4.5 SSW 24 35 13 19 1019.8 - 2.8
 
Date/Time
EST
Temp
°C
App
Temp
°C
Dew
Point
Rel
Hum
%
Delta-T
°C
Wind Press
QNH
hPa
Press
MSL
hPa
Rain
since 9 am
mm
Dir
 
Spd
km/h
Gust
km/h
Spd
kts
Gust
kts
03/11:30pm 15.8 10.3 5.8 51 4.8 SSW 24 37 13 20 1019.9 1019.9 2.8
03/11:11pm 15.9 9.8 6.7 54 4.5 SSW 28 50 15 27 1020.0 - 2.8
03/11:00pm 15.9 10.1 4.3 46 5.4 SSW 24 39 13 21 1019.9 - 2.8
03/10:30pm 16.2 10.7 4.1 44 5.6 SSW 22 35 12 19 1019.7 - 2.8
03/10:00pm 16.2 9.5 1.7 37 6.4 SW 26 46 14 25 1019.5 - 2.8
03/09:30pm 15.8 9.2 2.3 40 6.0 SSW 26 52 14 28 1019.5 - 2.8
03/09:00pm 16.1 9.4 3.4 42 5.8 SSW 28 50 15 27 1019.5 - 2.8
03/08:30pm 16.2 8.9 4.7 46 5.4 SSW 32 54 17 29 1019.5 1019.5 2.8
03/08:00pm 16.4 9.5 2.3 38 6.3 SSW 28 50 15 27 1019.3 - 2.8
03/07:30pm 16.4 10.2 4.4 45 5.6 SSW 26 44 14 24 1019.0 - 2.8
03/07:00pm 16.4 9.1 4.7 46 5.5 SSW 32 54 17 29 1018.6 - 2.8
03/06:30pm 16.2 9.4 7.1 55 4.5 SSW 32 61 17 33 1018.1 - 2.8
03/06:08pm 16.6 9.6 5.8 49 5.2 SSW 32 63 17 34 1018.0 - 2.8
03/06:00pm 16.4 8.9 3.6 42 5.9 SSW 32 48 17 26 1018.0 - 2.8
03/05:30pm 15.9 9.5 6.9 55 4.4 SSW 30 50 16 27 1017.7 1017.7 2.8
03/05:00pm 15.8 8.9 6.6 54 4.5 SSW 32 52 17 28 1017.3 - 2.8
03/04:30pm 16.0 8.1 6.1 52 4.8 SSW 37 65 20 35 1016.9 - 2.8

Other Formats:

Comma delimited format used in spreadsheet applications
http://www.bom.gov.au/fwo/IDN60801/IDN60801.94995.axf

JavaScript Object Notation format (JSON) in row-major order
http://www.bom.gov.au/fwo/IDN60801/IDN60801.94995.json